createdAt,value
2022-08-20T00:02:05.531Z,25.70
2022-08-20T00:05:33.889Z,25.22
2022-08-20T00:08:58.008Z,25.02
2022-08-20T00:12:19.658Z,24.90
2022-08-20T00:15:43.756Z,24.99
2022-08-20T00:19:08.682Z,25.00
2022-08-20T00:22:32.453Z,24.95
2022-08-20T00:25:54.317Z,24.82
2022-08-20T00:29:16.692Z,24.83
2022-08-20T00:32:50.840Z,25.09
2022-08-20T00:36:12.418Z,24.90
2022-08-20T00:39:34.088Z,24.79
2022-08-20T00:42:58.513Z,24.79
2022-08-20T00:46:28.822Z,24.75
2022-08-20T00:49:59.541Z,24.71
2022-08-20T00:53:24.285Z,24.79
2022-08-20T00:56:50.205Z,24.82
2022-08-20T01:00:28.315Z,24.57
2022-08-20T01:03:55.395Z,24.76
2022-08-20T01:07:20.542Z,25.02
2022-08-20T01:10:48.217Z,24.89
2022-08-20T01:14:28.477Z,24.73
2022-08-20T01:17:52.829Z,24.85
2022-08-20T01:21:28.257Z,24.97
2022-08-20T01:24:55.163Z,25.05
2022-08-20T01:28:22.692Z,24.90
2022-08-20T01:31:47.722Z,24.38
2022-08-20T01:35:10.144Z,24.61
2022-08-20T01:38:32.489Z,24.80
2022-08-20T01:42:17.676Z,25.12
2022-08-20T01:45:41.548Z,25.20
2022-08-20T01:49:23.519Z,25.10
2022-08-20T01:52:51.189Z,25.22
2022-08-20T01:56:16.640Z,25.27
2022-08-20T01:59:38.535Z,24.54
2022-08-20T02:03:03.204Z,23.48
2022-08-20T02:06:28.463Z,23.24
2022-08-20T02:09:52.871Z,23.49
2022-08-20T02:13:17.670Z,24.07
2022-08-20T02:16:42.164Z,24.41
2022-08-20T02:20:14.527Z,24.35
2022-08-20T02:23:36.124Z,24.44
2022-08-20T02:27:00.164Z,24.40
2022-08-20T02:30:28.317Z,24.35
2022-08-20T02:34:18.147Z,24.17
2022-08-20T02:37:35.493Z,24.13
2022-08-20T02:40:57.032Z,23.73
2022-08-20T02:44:21.519Z,23.97
2022-08-20T02:47:45.445Z,24.28
2022-08-20T02:51:08.448Z,24.59
2022-08-20T02:54:30.006Z,24.71
2022-08-20T02:57:54.911Z,24.86
2022-08-20T03:01:23.480Z,24.75
2022-08-20T03:04:52.192Z,24.73
2022-08-20T03:08:16.976Z,24.62
2022-08-20T03:11:39.989Z,24.58
2022-08-20T03:15:01.809Z,24.64
2022-08-20T03:18:28.592Z,24.64
2022-08-20T03:21:50.157Z,24.59
2022-08-20T03:25:14.664Z,24.71
2022-08-20T03:28:36.286Z,24.65
2022-08-20T03:32:02.960Z,24.71
2022-08-20T03:35:34.032Z,24.73
2022-08-20T03:39:02.509Z,24.62
2022-08-20T03:42:24.090Z,23.92
2022-08-20T03:45:47.396Z,22.96
2022-08-20T03:49:10.254Z,23.31
2022-08-20T03:52:31.960Z,23.49
2022-08-20T03:55:56.417Z,23.48
2022-08-20T03:59:19.889Z,23.42
2022-08-20T04:02:41.476Z,23.51
2022-08-20T04:06:05.717Z,23.66
2022-08-20T04:09:27.251Z,23.53
2022-08-20T04:12:53.213Z,23.24
2022-08-20T04:16:17.090Z,23.45
2022-08-20T04:19:47.600Z,23.73
2022-08-20T04:23:12.018Z,22.88
2022-08-20T04:26:36.458Z,23.31
2022-08-20T04:30:03.495Z,23.87
2022-08-20T04:33:33.849Z,24.14
2022-08-20T04:37:04.472Z,24.21
2022-08-20T04:40:44.998Z,24.01
2022-08-20T04:44:09.502Z,23.89
2022-08-20T04:47:35.882Z,24.24
2022-08-20T04:51:01.990Z,24.62
2022-08-20T04:54:25.583Z,24.86
2022-08-20T04:57:47.141Z,25.00
2022-08-20T05:01:12.631Z,25.09
2022-08-20T05:04:38.142Z,25.10
2022-08-20T05:08:04.634Z,24.99
2022-08-20T05:11:33.517Z,24.95
2022-08-20T05:14:58.746Z,24.88
2022-08-20T05:18:23.482Z,24.95
2022-08-20T05:21:45.219Z,24.88
2022-08-20T05:25:09.508Z,24.58
2022-08-20T05:28:54.263Z,24.31
2022-08-20T05:32:20.231Z,24.40
2022-08-20T05:35:44.392Z,24.82
2022-08-20T05:39:09.506Z,25.23
2022-08-20T05:42:31.267Z,25.19
2022-08-20T05:45:58.444Z,25.16
2022-08-20T05:49:23.333Z,25.10
2022-08-20T05:52:45.381Z,25.06
2022-08-20T05:56:07.294Z,25.13
2022-08-20T05:59:29.416Z,25.10
2022-08-20T06:03:09.693Z,25.06
2022-08-20T06:06:45.096Z,25.13
2022-08-20T06:10:10.817Z,25.28
2022-08-20T06:13:36.910Z,25.28
2022-08-20T06:17:13.731Z,25.03
2022-08-20T06:20:38.187Z,25.10
2022-08-20T06:24:02.394Z,25.61
2022-08-20T06:27:31.080Z,26.01
2022-08-20T06:30:53.371Z,26.19
2022-08-20T06:34:15.112Z,25.68
2022-08-20T06:37:40.141Z,25.28
2022-08-20T06:41:14.742Z,25.28
2022-08-20T06:44:37.199Z,25.12
2022-08-20T06:48:01.568Z,24.88
2022-08-20T06:51:25.411Z,25.35
2022-08-20T06:54:47.025Z,25.74
2022-08-20T06:58:30.440Z,25.81
2022-08-20T07:01:56.500Z,25.31
2022-08-20T07:05:22.902Z,25.19
2022-08-20T07:08:45.035Z,24.86
2022-08-20T07:12:11.297Z,24.86
2022-08-20T07:15:35.814Z,24.61
2022-08-20T07:18:58.450Z,24.62
2022-08-20T07:22:20.416Z,24.68
2022-08-20T07:25:48.629Z,25.06
2022-08-20T07:29:12.644Z,25.41
2022-08-20T07:32:36.893Z,25.80
2022-08-20T07:36:04.335Z,25.85
2022-08-20T07:39:27.756Z,25.93
2022-08-20T07:42:56.854Z,25.84
2022-08-20T07:46:21.602Z,25.44
2022-08-20T07:49:45.848Z,25.48
2022-08-20T07:53:12.205Z,25.13
2022-08-20T07:56:37.042Z,24.80
2022-08-20T08:00:01.384Z,24.44
2022-08-20T08:03:40.654Z,24.09
2022-08-20T08:07:16.800Z,23.08
2022-08-20T08:10:38.691Z,22.69
2022-08-20T08:14:02.787Z,22.13
2022-08-20T08:17:24.555Z,21.65
2022-08-20T08:20:48.084Z,21.47
2022-08-20T08:24:12.723Z,21.29
2022-08-20T08:27:36.304Z,21.15
2022-08-20T08:30:59.984Z,21.35
2022-08-20T08:34:26.633Z,21.83
2022-08-20T08:37:50.506Z,22.12
2022-08-20T08:41:48.458Z,21.50
2022-08-20T08:45:12.601Z,21.70
2022-08-20T08:48:45.791Z,22.06
2022-08-20T08:52:14.723Z,22.40
2022-08-20T08:55:36.579Z,22.81
2022-08-20T08:59:01.733Z,23.41
2022-08-20T09:02:26.309Z,23.99
2022-08-20T09:05:53.567Z,24.09
2022-08-20T09:09:21.276Z,23.86
2022-08-20T09:12:47.634Z,23.42
2022-08-20T09:16:10.538Z,22.48
